APL New Jersey — A8NM6 — position and weather

sailwx.info

Track history (hours):
 
Tides and Currents Weather Stations Pressure Air Temp Water Temp Dewpoint Dewpoint Depression Visibility Wind Speed Wind Dir Waves Ship Positions

APL New Jersey

Last reported at 2017-Apr-24 08:12 UTC. Time now 2017-Apr-24 15:21 UTC.
Position N 38°21' W 124°02'.

Length 293 m; draft 11.8 m.

Type: Cargo ship. MMSI: 636013522.

Date/timePositionNaut miles runAvg speedWind from/ knotsBaromVisibWave heightAir tempDewpointWater temp
2017-Apr-24 08:12N 38°21' W 124°02'316.0
2017-Apr-24 08:00N 38°20' W 123°58'815.7
2017-Apr-24 07:31N 38°17' W 123°49'815.6
2017-Apr-24 07:00N 38°15' W 123°39'815.5
2017-Apr-24 06:30N 38°12' W 123°30'815.0
2017-Apr-24 06:00N 38°09' W 123°21'714.6
2017-Apr-24 05:31N 38°04' W 123°15'714.6
2017-Apr-24 05:01N 37°58' W 123°09'714.9
2017-Apr-24 04:30N 37°55' W 123°01'815.2
2017-Apr-24 04:00N 37°51' W 122°52'714.9
2017-Apr-24 03:31N 37°47' W 122°45'4 7.4
2017-Apr-24 03:00N 37°46' W 122°40'612.6
2017-Apr-24 02:30N 37°48' W 122°32'612.2
2017-Apr-24 02:01N 37°50' W 122°25'510.4
2017-Apr-24 01:30N 37°48' W 122°20'2 3.4
2017-Apr-24 01:01N 37°48' W 122°17'1 2.5
2017-Apr-24 00:30N 37°48' W 122°19'0 0.0
2017-Apr-23 23:59N 37°48' W 122°19'0 0.0
2017-Apr-23 23:28N 37°48' W 122°19'0 0.0
2017-Apr-23 22:59N 37°48' W 122°19'0 0.0
2017-Apr-23 22:28N 37°48' W 122°19'0 0.0
2017-Apr-23 21:59N 37°48' W 122°19'0 0.0
2017-Apr-23 21:28N 37°48' W 122°19'0 0.0
2017-Apr-23 20:59N 37°48' W 122°19'0 0.0
2017-Apr-23 20:29N 37°48' W 122°19'0 0.0
2017-Apr-23 19:59N 37°48' W 122°19'0 0.0
2017-Apr-23 19:28N 37°48' W 122°19'0 0.0
2017-Apr-23 18:58N 37°48' W 122°19'0 0.0
2017-Apr-23 18:28N 37°48' W 122°19'0 0.0
2017-Apr-23 17:58N 37°48' W 122°19'0 0.1
2017-Apr-23 17:28N 37°48' W 122°19'0 0.0
2017-Apr-23 16:58N 37°48' W 122°19'0 0.0
2017-Apr-23 16:28N 37°48' W 122°19'0 0.0
2017-Apr-23 15:58N 37°48' W 122°19'0 0.0
2017-Apr-23 15:29N 37°48' W 122°19'0 0.0
2017-Apr-23 14:58N 37°48' W 122°19'0 0.0
2017-Apr-23 13:59N 37°48' W 122°19'0 0.0
2017-Apr-23 13:29N 37°48' W 122°19'0 0.0
2017-Apr-23 12:58N 37°48' W 122°19'0 0.0
2017-Apr-23 12:28N 37°48' W 122°19'0 0.0
2017-Apr-23 11:58N 37°48' W 122°19'0 0.0
2017-Apr-23 11:28N 37°48' W 122°19'0 0.0
2017-Apr-23 10:59N 37°48' W 122°19'0 0.0
2017-Apr-23 10:29N 37°48' W 122°19'0 0.0
2017-Apr-23 09:59N 37°48' W 122°19'0 0.0
2017-Apr-23 09:29N 37°48' W 122°19'0 0.0
2017-Apr-23 08:59N 37°48' W 122°19'0 0.0
2017-Apr-23 08:29N 37°48' W 122°19'0 0.0
2017-Apr-23 07:59N 37°48' W 122°19'0 0.0
2017-Apr-23 07:29N 37°48' W 122°19'0 0.0
2017-Apr-23 06:59N 37°48' W 122°19'0 0.0
2017-Apr-23 06:29N 37°48' W 122°19'0 0.0
2017-Apr-23 05:59N 37°48' W 122°19'0 0.0
2017-Apr-23 05:29N 37°48' W 122°19'0 0.0
2017-Apr-23 04:58N 37°48' W 122°19'0 0.0
2017-Apr-23 04:29N 37°48' W 122°19'0 0.0
2017-Apr-23 03:59N 37°48' W 122°19'0 0.0
2017-Apr-23 03:29N 37°48' W 122°19'0 0.0
2017-Apr-23 02:58N 37°48' W 122°19'0 0.0
2017-Apr-23 02:29N 37°48' W 122°19'0 0.0
2017-Apr-23 01:58N 37°48' W 122°19'0 0.0
2017-Apr-23 01:29N 37°48' W 122°19'0 0.0
2017-Apr-23 00:58N 37°48' W 122°19'0 0.0
2017-Apr-23 00:29N 37°48' W 122°19'0 0.1
2017-Apr-23 00:01N 37°48' W 122°19'3 5.1
2017-Apr-22 23:30N 37°48' W 122°22'5 9.4
2017-Apr-22 23:00N 37°49' W 122°28'510.2
2017-Apr-22 22:30N 37°47' W 122°34'612.0
2017-Apr-22 22:00N 37°45' W 122°41'5 9.8
2017-Apr-22 21:30N 37°40' W 122°40'612.8
2017-Apr-22 21:01N 37°33' W 122°40'714.9
2017-Apr-22 20:31N 37°26' W 122°40'1017.8
2017-Apr-22 19:55N 37°15' W 122°39'818.2
2017-Apr-22 19:29N 37°07' W 122°38'919.0
2017-Apr-22 19:00N 36°59' W 122°35'1019.6
2017-Apr-22 18:30N 36°49' W 122°32'1019.4
2017-Apr-22 18:00N 36°40' W 122°27'1019.7
2017-Apr-22 17:30N 36°31' W 122°23'1020.3
2017-Apr-22 17:00N 36°22' W 122°17'1020.1
2017-Apr-22 16:30N 36°13' W 122°12'1020.2
2017-Apr-22 16:00N 36°04' W 122°07'1020.3
2017-Apr-22 15:30N 35°54' W 122°02'1121.0
2017-Apr-22 15:00N 35°45' W 121°56'1121.9
2017-Apr-22 14:30N 35°36' W 121°49'2222.0
2017-Apr-22 13:30N 35°18' W 121°34'1122.1
2017-Apr-22 13:00N 35°08' W 121°26'1121.7
2017-Apr-22 12:30N 34°59' W 121°19'1121.4
2017-Apr-22 12:00N 34°51' W 121°11'1121.2
2017-Apr-22 11:31N 34°42' W 121°04'1020.7
2017-Apr-22 11:00N 34°33' W 120°57'1020.8
2017-Apr-22 10:30N 34°26' W 120°48'1121.5
2017-Apr-22 10:00N 34°22' W 120°36'1021.0
2017-Apr-22 09:30N 34°20' W 120°24'1122.0
2017-Apr-22 09:00N 34°17' W 120°11'1121.8
2017-Apr-22 08:30N 34°14' W 119°58'1121.7
2017-Apr-22 08:01N 34°11' W 119°45'1121.8
2017-Apr-22 07:30N 34°08' W 119°33'1122.0
2017-Apr-22 07:01N 34°05' W 119°20'1020.2
2017-Apr-22 06:31N 34°01' W 119°09'714.5
2017-Apr-22 06:00N 33°57' W 119°02'611.7
2017-Apr-22 05:30N 33°54' W 118°55'611.8
2017-Apr-22 05:00N 33°51' W 118°49'611.9
2017-Apr-22 04:30N 33°49' W 118°43'611.7
2017-Apr-22 04:00N 33°46' W 118°37'611.7
2017-Apr-22 03:30N 33°43' W 118°31'611.8
2017-Apr-22 03:00N 33°40' W 118°24'611.1
2017-Apr-22 02:30N 33°38' W 118°18'5 9.8
2017-Apr-22 02:01N 33°42' W 118°15'3 5.4
2017-Apr-22 01:30N 33°45' W 118°16'1 1.2
2017-Apr-22 01:00N 33°45' W 118°16'0 0.0
2017-Apr-22 00:30N 33°45' W 118°16'0 0.0
2017-Apr-21 23:54N 33°45' W 118°16'0 0.0
2017-Apr-21 23:30N 33°45' W 118°16'0 0.0
2017-Apr-21 22:57N 33°45' W 118°16'0 0.0
2017-Apr-21 22:30N 33°45' W 118°16'0 0.0
2017-Apr-21 22:00N 33°45' W 118°16'0 0.0
2017-Apr-21 21:30N 33°45' W 118°16'0 0.0
2017-Apr-21 21:00N 33°45' W 118°16'0 0.0
2017-Apr-21 20:30N 33°45' W 118°16'0 0.0
2017-Apr-21 20:00N 33°45' W 118°16'0 0.0
2017-Apr-21 19:30N 33°45' W 118°16'0 0.0
2017-Apr-21 19:00N 33°45' W 118°16'0 0.0
2017-Apr-21 18:30N 33°45' W 118°16'0 0.0
2017-Apr-21 18:00N 33°45' W 118°16'0 0.0
2017-Apr-21 17:27N 33°45' W 118°16'0 0.0
2017-Apr-21 17:00N 33°45' W 118°16'0 0.0
2017-Apr-21 16:30N 33°45' W 118°16'0 0.0
2017-Apr-21 16:00N 33°45' W 118°16'0 0.0
2017-Apr-21 15:30N 33°45' W 118°16'0 0.0
2017-Apr-21 15:00N 33°45' W 118°16'0 0.0
2017-Apr-21 14:30N 33°45' W 118°16'0 0.0
2017-Apr-21 13:18N 33°45' W 118°16'0 0.0
2017-Apr-21 13:00N 33°45' W 118°16'0 0.0
2017-Apr-21 12:30N 33°45' W 118°16'0 0.0
2017-Apr-21 12:00N 33°45' W 118°16'0 0.0
2017-Apr-21 11:30N 33°45' W 118°16'0 0.0
2017-Apr-21 10:54N 33°45' W 118°16'0 0.0
2017-Apr-21 10:30N 33°45' W 118°16'0 0.0
2017-Apr-21 10:00N 33°45' W 118°16'0 0.0
2017-Apr-21 09:30N 33°45' W 118°16'0 0.0
2017-Apr-21 09:00N 33°45' W 118°16'0 0.0
2017-Apr-21 08:27N 33°45' W 118°16'0 0.0
2017-Apr-21 07:51N 33°45' W 118°16'0 0.0
2017-Apr-21 07:30N 33°45' W 118°16'0 0.0
2017-Apr-21 07:00N 33°45' W 118°16'0 0.0
2017-Apr-21 06:27N 33°45' W 118°16'0 0.0
2017-Apr-21 06:00N 33°45' W 118°16'0 0.0
2017-Apr-21 05:30N 33°45' W 118°16'0 0.0
2017-Apr-21 05:00N 33°45' W 118°16'0 0.0
2017-Apr-21 04:30N 33°45' W 118°16'0 0.0
2017-Apr-21 04:00N 33°45' W 118°16'0 0.0
2017-Apr-21 03:30N 33°45' W 118°16'0 0.0
2017-Apr-21 03:00N 33°45' W 118°16'0 0.0
2017-Apr-21 02:30N 33°45' W 118°16'0 0.0
2017-Apr-21 02:00N 33°45' W 118°16'0 0.0
2017-Apr-21 01:30N 33°45' W 118°16'0 0.0
2017-Apr-21 01:00N 33°45' W 118°16'0 0.0
2017-Apr-21 00:30N 33°45' W 118°16'0 0.0
2017-Apr-21 00:00N 33°45' W 118°16'0 0.0
2017-Apr-20 23:27N 33°45' W 118°16'0 0.0
2017-Apr-20 23:00N 33°45' W 118°16'0 0.0
2017-Apr-20 22:30N 33°45' W 118°16'0 0.0
2017-Apr-20 22:00N 33°45' W 118°16'0 0.0
2017-Apr-20 21:30N 33°45' W 118°16'0 0.0
2017-Apr-20 21:00N 33°45' W 118°16'0 0.0
2017-Apr-20 20:30N 33°45' W 118°16'0 0.0
2017-Apr-20 20:00N 33°45' W 118°16'0 0.0
2017-Apr-20 19:30N 33°45' W 118°16'0 0.0
2017-Apr-20 18:57N 33°45' W 118°16'0 0.0
2017-Apr-20 18:30N 33°45' W 118°16'0 0.0
2017-Apr-20 18:00N 33°45' W 118°16'0 0.0
2017-Apr-20 17:30N 33°45' W 118°16'0 0.0
2017-Apr-20 17:00N 33°45' W 118°16'0 0.0
2017-Apr-20 16:24N 33°45' W 118°16'0 0.0
2017-Apr-20 15:48N 33°45' W 118°16'0 0.0
2017-Apr-20 15:18N 33°45' W 118°16'0 0.0
2017-Apr-20 14:51N 33°45' W 118°16'0 0.0
2017-Apr-20 14:18N 33°45' W 118°16'0 0.0
2017-Apr-20 13:30N 33°45' W 118°16'0 0.0
2017-Apr-20 13:00N 33°45' W 118°16'0 0.0
2017-Apr-20 12:24N 33°45' W 118°16'0 0.0
2017-Apr-20 12:00N 33°45' W 118°16'0 0.0
2017-Apr-20 11:30N 33°45' W 118°16'0 0.0
2017-Apr-20 11:00N 33°45' W 118°16'0 0.0
2017-Apr-20 10:27N 33°45' W 118°16'0 0.0
2017-Apr-20 10:00N 33°45' W 118°16'0 0.0
2017-Apr-20 09:24N 33°45' W 118°16'0 0.0
2017-Apr-20 08:51N 33°45' W 118°16'0 0.0
2017-Apr-20 08:30N 33°45' W 118°16'0 0.0
2017-Apr-20 08:00N 33°45' W 118°16'0 0.0
2017-Apr-20 07:24N 33°45' W 118°16'0 0.0
2017-Apr-20 07:00N 33°45' W 118°16'0 0.0
2017-Apr-20 06:30N 33°45' W 118°16'0 0.0
2017-Apr-20 06:00N 33°45' W 118°16'0 0.0
2017-Apr-20 05:30N 33°45' W 118°16'0 0.0
2017-Apr-20 05:00N 33°45' W 118°16'0 0.0
2017-Apr-20 04:30N 33°45' W 118°16'0 0.0
2017-Apr-20 04:00N 33°45' W 118°16'0 0.0
2017-Apr-20 03:30N 33°45' W 118°16'0 0.1
2017-Apr-20 02:57N 33°45' W 118°16'0 0.1
2017-Apr-20 02:30N 33°45' W 118°16'0 0.0
2017-Apr-20 02:00N 33°45' W 118°16'0 0.0
2017-Apr-20 01:30N 33°45' W 118°16'0 0.0
2017-Apr-20 00:57N 33°45' W 118°16'0 0.0
2017-Apr-20 00:30N 33°45' W 118°16'0 0.0
2017-Apr-20 00:00N 33°45' W 118°16'0 0.0
2017-Apr-19 23:30N 33°45' W 118°16'0 0.0
2017-Apr-19 23:00N 33°45' W 118°16'0 0.0
2017-Apr-19 22:30N 33°45' W 118°16'0 0.0
2017-Apr-19 22:00N 33°45' W 118°16'0 0.0
2017-Apr-19 21:30N 33°45' W 118°16'0 0.0
2017-Apr-19 21:00N 33°45' W 118°16'0 0.0
2017-Apr-19 20:30N 33°45' W 118°16'0 0.0
2017-Apr-19 20:00N 33°45' W 118°16'0 0.0
2017-Apr-19 19:12N 33°45' W 118°16'0 0.0
2017-Apr-19 18:48N 33°45' W 118°16'0 0.0
2017-Apr-19 18:06N 33°45' W 118°16'0 0.0
2017-Apr-19 17:42N 33°45' W 118°16'0 0.0
2017-Apr-19 17:30N 33°45' W 118°16'0 0.0
2017-Apr-19 16:30N 33°45' W 118°16'0 0.0
2017-Apr-19 05:30N 33°45' W 118°16'0 0.0
2017-Apr-19 04:48N 33°45' W 118°16'0 0.0
2017-Apr-19 04:30N 33°45' W 118°16'0 0.0
2017-Apr-19 04:00N 33°45' W 118°16'0 0.0
2017-Apr-19 03:24N 33°45' W 118°16'0 0.0
2017-Apr-19 03:00N 33°45' W 118°16'0 0.0
2017-Apr-19 02:30N 33°45' W 118°16'0 0.0
2017-Apr-19 02:00N 33°45' W 118°16'0 0.0
2017-Apr-19 00:24N 33°45' W 118°16'0 0.0
2017-Apr-18 23:54N 33°45' W 118°16'0 0.0
2017-Apr-18 23:30N 33°45' W 118°16'0 0.0
2017-Apr-18 23:00N 33°45' W 118°16'0 0.0
2017-Apr-18 22:30N 33°45' W 118°16'0 0.0
2017-Apr-18 22:00N 33°45' W 118°16'1 2.8
2017-Apr-18 21:30N 33°44' W 118°17'4 7.8
2017-Apr-18 21:00N 33°41' W 118°14'4 7.7
2017-Apr-18 20:30N 33°37' W 118°15'5 9.7
2017-Apr-18 20:00N 33°36' W 118°21'611.2
2017-Apr-18 19:30N 33°39' W 118°27'611.6
2017-Apr-18 19:00N 33°42' W 118°32'611.8
2017-Apr-18 18:30N 33°45' W 118°38'611.5
2017-Apr-18 18:01N 33°48' W 118°44'611.6
2017-Apr-18 17:30N 33°51' W 118°51'611.5
2017-Apr-18 17:01N 33°54' W 118°57'611.5
2017-Apr-18 16:30N 33°56' W 119°03'612.1
2017-Apr-18 16:00N 33°60' W 119°09'713.1
2017-Apr-18 15:29N 34°03' W 119°16'714.3
2017-Apr-18 15:00N 34°04' W 119°24'714.3
2017-Apr-18 14:30N 34°06' W 119°33'1515.5
2017-Apr-18 13:30N 34°10' W 119°51'915.5
2017-Apr-18 12:56N 34°13' W 120°01'715.5
2017-Apr-18 12:30N 34°14' W 120°09'815.5
2017-Apr-18 12:00N 34°16' W 120°18'815.4
2017-Apr-18 11:30N 34°19' W 120°27'815.5
2017-Apr-18 11:00N 34°21' W 120°36'815.5
2017-Apr-18 10:30N 34°23' W 120°45'815.6
2017-Apr-18 10:00N 34°24' W 120°54'815.5
2017-Apr-18 09:29N 34°26' W 121°04'715.5
2017-Apr-18 09:01N 34°27' W 121°13'815.5
2017-Apr-18 08:30N 34°29' W 121°22'815.3
2017-Apr-18 08:00N 34°30' W 121°31'815.4
2017-Apr-18 07:30N 34°31' W 121°40'815.6
2017-Apr-18 07:00N 34°32' W 121°50'715.3
2017-Apr-18 06:30N 34°34' W 121°59'815.5
2017-Apr-18 05:59N 34°35' W 122°08'815.5
2017-Apr-18 05:30N 34°36' W 122°17'815.5
2017-Apr-18 04:59N 34°38' W 122°27'815.5
2017-Apr-18 04:28N 34°39' W 122°36'715.6
2017-Apr-18 04:01N 34°40' W 122°45'815.3
2017-Apr-18 03:30N 34°42' W 122°54'815.3
2017-Apr-18 03:00N 34°43' W 123°03'4 7.0
2017-Apr-18 02:30N 34°44' W 123°07'4 8.9
2017-Apr-18 02:00N 34°44' W 123°13'918.3
2017-Apr-18 01:30N 34°46' W 123°24'  
Track history (hours):
 
Tides and Currents Weather Stations Pressure Air Temp Water Temp Dewpoint Dewpoint Depression Visibility Wind Speed Wind Dir Waves Ship Positions

APL New Jersey

Last reported at 2017-Apr-24 08:12 UTC. Time now 2017-Apr-24 15:21 UTC.
Position N 38°21' W 124°02'.

Length 293 m; draft 11.8 m.

Type: Cargo ship. MMSI: 636013522.

Date/timePositionNaut miles runAvg speedWind from/ knotsBaromVisibWave heightAir tempDewpointWater temp
2017-Apr-24 08:12N 38°21' W 124°02'316.0
2017-Apr-24 08:00N 38°20' W 123°58'815.7
2017-Apr-24 07:31N 38°17' W 123°49'815.6
2017-Apr-24 07:00N 38°15' W 123°39'815.5
2017-Apr-24 06:30N 38°12' W 123°30'815.0
2017-Apr-24 06:00N 38°09' W 123°21'714.6
2017-Apr-24 05:31N 38°04' W 123°15'714.6
2017-Apr-24 05:01N 37°58' W 123°09'714.9
2017-Apr-24 04:30N 37°55' W 123°01'815.2
2017-Apr-24 04:00N 37°51' W 122°52'714.9
2017-Apr-24 03:31N 37°47' W 122°45'4 7.4
2017-Apr-24 03:00N 37°46' W 122°40'612.6
2017-Apr-24 02:30N 37°48' W 122°32'612.2
2017-Apr-24 02:01N 37°50' W 122°25'510.4
2017-Apr-24 01:30N 37°48' W 122°20'2 3.4
2017-Apr-24 01:01N 37°48' W 122°17'1 2.5
2017-Apr-24 00:30N 37°48' W 122°19'0 0.0
2017-Apr-23 23:59N 37°48' W 122°19'0 0.0
2017-Apr-23 23:28N 37°48' W 122°19'0 0.0
2017-Apr-23 22:59N 37°48' W 122°19'0 0.0
2017-Apr-23 22:28N 37°48' W 122°19'0 0.0
2017-Apr-23 21:59N 37°48' W 122°19'0 0.0
2017-Apr-23 21:28N 37°48' W 122°19'0 0.0
2017-Apr-23 20:59N 37°48' W 122°19'0 0.0
2017-Apr-23 20:29N 37°48' W 122°19'0 0.0
2017-Apr-23 19:59N 37°48' W 122°19'0 0.0
2017-Apr-23 19:28N 37°48' W 122°19'0 0.0
2017-Apr-23 18:58N 37°48' W 122°19'0 0.0
2017-Apr-23 18:28N 37°48' W 122°19'0 0.0
2017-Apr-23 17:58N 37°48' W 122°19'0 0.1
2017-Apr-23 17:28N 37°48' W 122°19'0 0.0
2017-Apr-23 16:58N 37°48' W 122°19'0 0.0
2017-Apr-23 16:28N 37°48' W 122°19'0 0.0
2017-Apr-23 15:58N 37°48' W 122°19'0 0.0
2017-Apr-23 15:29N 37°48' W 122°19'0 0.0
2017-Apr-23 14:58N 37°48' W 122°19'0 0.0
2017-Apr-23 13:59N 37°48' W 122°19'0 0.0
2017-Apr-23 13:29N 37°48' W 122°19'0 0.0
2017-Apr-23 12:58N 37°48' W 122°19'0 0.0
2017-Apr-23 12:28N 37°48' W 122°19'0 0.0
2017-Apr-23 11:58N 37°48' W 122°19'0 0.0
2017-Apr-23 11:28N 37°48' W 122°19'0 0.0
2017-Apr-23 10:59N 37°48' W 122°19'0 0.0
2017-Apr-23 10:29N 37°48' W 122°19'0 0.0
2017-Apr-23 09:59N 37°48' W 122°19'0 0.0
2017-Apr-23 09:29N 37°48' W 122°19'0 0.0
2017-Apr-23 08:59N 37°48' W 122°19'0 0.0
2017-Apr-23 08:29N 37°48' W 122°19'0 0.0
2017-Apr-23 07:59N 37°48' W 122°19'0 0.0
2017-Apr-23 07:29N 37°48' W 122°19'0 0.0
2017-Apr-23 06:59N 37°48' W 122°19'0 0.0
2017-Apr-23 06:29N 37°48' W 122°19'0 0.0
2017-Apr-23 05:59N 37°48' W 122°19'0 0.0
2017-Apr-23 05:29N 37°48' W 122°19'0 0.0
2017-Apr-23 04:58N 37°48' W 122°19'0 0.0
2017-Apr-23 04:29N 37°48' W 122°19'0 0.0
2017-Apr-23 03:59N 37°48' W 122°19'0 0.0
2017-Apr-23 03:29N 37°48' W 122°19'0 0.0
2017-Apr-23 02:58N 37°48' W 122°19'0 0.0
2017-Apr-23 02:29N 37°48' W 122°19'0 0.0
2017-Apr-23 01:58N 37°48' W 122°19'0 0.0
2017-Apr-23 01:29N 37°48' W 122°19'0 0.0
2017-Apr-23 00:58N 37°48' W 122°19'0 0.0
2017-Apr-23 00:29N 37°48' W 122°19'0 0.1
2017-Apr-23 00:01N 37°48' W 122°19'3 5.1
2017-Apr-22 23:30N 37°48' W 122°22'5 9.4
2017-Apr-22 23:00N 37°49' W 122°28'510.2
2017-Apr-22 22:30N 37°47' W 122°34'612.0
2017-Apr-22 22:00N 37°45' W 122°41'5 9.8
2017-Apr-22 21:30N 37°40' W 122°40'612.8
2017-Apr-22 21:01N 37°33' W 122°40'714.9
2017-Apr-22 20:31N 37°26' W 122°40'1017.8
2017-Apr-22 19:55N 37°15' W 122°39'818.2
2017-Apr-22 19:29N 37°07' W 122°38'919.0
2017-Apr-22 19:00N 36°59' W 122°35'1019.6
2017-Apr-22 18:30N 36°49' W 122°32'1019.4
2017-Apr-22 18:00N 36°40' W 122°27'1019.7
2017-Apr-22 17:30N 36°31' W 122°23'1020.3
2017-Apr-22 17:00N 36°22' W 122°17'1020.1
2017-Apr-22 16:30N 36°13' W 122°12'1020.2
2017-Apr-22 16:00N 36°04' W 122°07'1020.3
2017-Apr-22 15:30N 35°54' W 122°02'1121.0
2017-Apr-22 15:00N 35°45' W 121°56'1121.9
2017-Apr-22 14:30N 35°36' W 121°49'2222.0
2017-Apr-22 13:30N 35°18' W 121°34'1122.1
2017-Apr-22 13:00N 35°08' W 121°26'1121.7
2017-Apr-22 12:30N 34°59' W 121°19'1121.4
2017-Apr-22 12:00N 34°51' W 121°11'1121.2
2017-Apr-22 11:31N 34°42' W 121°04'1020.7
2017-Apr-22 11:00N 34°33' W 120°57'1020.8
2017-Apr-22 10:30N 34°26' W 120°48'1121.5
2017-Apr-22 10:00N 34°22' W 120°36'1021.0
2017-Apr-22 09:30N 34°20' W 120°24'1122.0
2017-Apr-22 09:00N 34°17' W 120°11'1121.8
2017-Apr-22 08:30N 34°14' W 119°58'1121.7
2017-Apr-22 08:01N 34°11' W 119°45'1121.8
2017-Apr-22 07:30N 34°08' W 119°33'1122.0
2017-Apr-22 07:01N 34°05' W 119°20'1020.2
2017-Apr-22 06:31N 34°01' W 119°09'714.5
2017-Apr-22 06:00N 33°57' W 119°02'611.7
2017-Apr-22 05:30N 33°54' W 118°55'611.8
2017-Apr-22 05:00N 33°51' W 118°49'611.9
2017-Apr-22 04:30N 33°49' W 118°43'611.7
2017-Apr-22 04:00N 33°46' W 118°37'611.7
2017-Apr-22 03:30N 33°43' W 118°31'611.8
2017-Apr-22 03:00N 33°40' W 118°24'611.1
2017-Apr-22 02:30N 33°38' W 118°18'5 9.8
2017-Apr-22 02:01N 33°42' W 118°15'3 5.4
2017-Apr-22 01:30N 33°45' W 118°16'1 1.2
2017-Apr-22 01:00N 33°45' W 118°16'0 0.0
2017-Apr-22 00:30N 33°45' W 118°16'0 0.0
2017-Apr-21 23:54N 33°45' W 118°16'0 0.0
2017-Apr-21 23:30N 33°45' W 118°16'0 0.0
2017-Apr-21 22:57N 33°45' W 118°16'0 0.0
2017-Apr-21 22:30N 33°45' W 118°16'0 0.0
2017-Apr-21 22:00N 33°45' W 118°16'0 0.0
2017-Apr-21 21:30N 33°45' W 118°16'0 0.0
2017-Apr-21 21:00N 33°45' W 118°16'0 0.0
2017-Apr-21 20:30N 33°45' W 118°16'0 0.0
2017-Apr-21 20:00N 33°45' W 118°16'0 0.0
2017-Apr-21 19:30N 33°45' W 118°16'0 0.0
2017-Apr-21 19:00N 33°45' W 118°16'0 0.0
2017-Apr-21 18:30N 33°45' W 118°16'0 0.0
2017-Apr-21 18:00N 33°45' W 118°16'0 0.0
2017-Apr-21 17:27N 33°45' W 118°16'0 0.0
2017-Apr-21 17:00N 33°45' W 118°16'0 0.0
2017-Apr-21 16:30N 33°45' W 118°16'0 0.0
2017-Apr-21 16:00N 33°45' W 118°16'0 0.0
2017-Apr-21 15:30N 33°45' W 118°16'0 0.0
2017-Apr-21 15:00N 33°45' W 118°16'0 0.0
2017-Apr-21 14:30N 33°45' W 118°16'0 0.0
2017-Apr-21 13:18N 33°45' W 118°16'0 0.0
2017-Apr-21 13:00N 33°45' W 118°16'0 0.0
2017-Apr-21 12:30N 33°45' W 118°16'0 0.0
2017-Apr-21 12:00N 33°45' W 118°16'0 0.0
2017-Apr-21 11:30N 33°45' W 118°16'0 0.0
2017-Apr-21 10:54N 33°45' W 118°16'0 0.0
2017-Apr-21 10:30N 33°45' W 118°16'0 0.0
2017-Apr-21 10:00N 33°45' W 118°16'0 0.0
2017-Apr-21 09:30N 33°45' W 118°16'0 0.0
2017-Apr-21 09:00N 33°45' W 118°16'0 0.0
2017-Apr-21 08:27N 33°45' W 118°16'0 0.0
2017-Apr-21 07:51N 33°45' W 118°16'0 0.0
2017-Apr-21 07:30N 33°45' W 118°16'0 0.0
2017-Apr-21 07:00N 33°45' W 118°16'0 0.0
2017-Apr-21 06:27N 33°45' W 118°16'0 0.0
2017-Apr-21 06:00N 33°45' W 118°16'0 0.0
2017-Apr-21 05:30N 33°45' W 118°16'0 0.0
2017-Apr-21 05:00N 33°45' W 118°16'0 0.0
2017-Apr-21 04:30N 33°45' W 118°16'0 0.0
2017-Apr-21 04:00N 33°45' W 118°16'0 0.0
2017-Apr-21 03:30N 33°45' W 118°16'0 0.0
2017-Apr-21 03:00N 33°45' W 118°16'0 0.0
2017-Apr-21 02:30N 33°45' W 118°16'0 0.0
2017-Apr-21 02:00N 33°45' W 118°16'0 0.0
2017-Apr-21 01:30N 33°45' W 118°16'0 0.0
2017-Apr-21 01:00N 33°45' W 118°16'0 0.0
2017-Apr-21 00:30N 33°45' W 118°16'0 0.0
2017-Apr-21 00:00N 33°45' W 118°16'0 0.0
2017-Apr-20 23:27N 33°45' W 118°16'0 0.0
2017-Apr-20 23:00N 33°45' W 118°16'0 0.0
2017-Apr-20 22:30N 33°45' W 118°16'0 0.0
2017-Apr-20 22:00N 33°45' W 118°16'0 0.0
2017-Apr-20 21:30N 33°45' W 118°16'0 0.0
2017-Apr-20 21:00N 33°45' W 118°16'0 0.0
2017-Apr-20 20:30N 33°45' W 118°16'0 0.0
2017-Apr-20 20:00N 33°45' W 118°16'0 0.0
2017-Apr-20 19:30N 33°45' W 118°16'0 0.0
2017-Apr-20 18:57N 33°45' W 118°16'0 0.0
2017-Apr-20 18:30N 33°45' W 118°16'0 0.0
2017-Apr-20 18:00N 33°45' W 118°16'0 0.0
2017-Apr-20 17:30N 33°45' W 118°16'0 0.0
2017-Apr-20 17:00N 33°45' W 118°16'0 0.0
2017-Apr-20 16:24N 33°45' W 118°16'0 0.0
2017-Apr-20 15:48N 33°45' W 118°16'0 0.0
2017-Apr-20 15:18N 33°45' W 118°16'0 0.0
2017-Apr-20 14:51N 33°45' W 118°16'0 0.0
2017-Apr-20 14:18N 33°45' W 118°16'0 0.0
2017-Apr-20 13:30N 33°45' W 118°16'0 0.0
2017-Apr-20 13:00N 33°45' W 118°16'0 0.0
2017-Apr-20 12:24N 33°45' W 118°16'0 0.0
2017-Apr-20 12:00N 33°45' W 118°16'0 0.0
2017-Apr-20 11:30N 33°45' W 118°16'0 0.0
2017-Apr-20 11:00N 33°45' W 118°16'0 0.0
2017-Apr-20 10:27N 33°45' W 118°16'0 0.0
2017-Apr-20 10:00N 33°45' W 118°16'0 0.0
2017-Apr-20 09:24N 33°45' W 118°16'0 0.0
2017-Apr-20 08:51N 33°45' W 118°16'0 0.0
2017-Apr-20 08:30N 33°45' W 118°16'0 0.0
2017-Apr-20 08:00N 33°45' W 118°16'0 0.0
2017-Apr-20 07:24N 33°45' W 118°16'0 0.0
2017-Apr-20 07:00N 33°45' W 118°16'0 0.0
2017-Apr-20 06:30N 33°45' W 118°16'0 0.0
2017-Apr-20 06:00N 33°45' W 118°16'0 0.0
2017-Apr-20 05:30N 33°45' W 118°16'0 0.0
2017-Apr-20 05:00N 33°45' W 118°16'0 0.0
2017-Apr-20 04:30N 33°45' W 118°16'0 0.0
2017-Apr-20 04:00N 33°45' W 118°16'0 0.0
2017-Apr-20 03:30N 33°45' W 118°16'0 0.1
2017-Apr-20 02:57N 33°45' W 118°16'0 0.1
2017-Apr-20 02:30N 33°45' W 118°16'0 0.0
2017-Apr-20 02:00N 33°45' W 118°16'0 0.0
2017-Apr-20 01:30N 33°45' W 118°16'0 0.0
2017-Apr-20 00:57N 33°45' W 118°16'0 0.0
2017-Apr-20 00:30N 33°45' W 118°16'0 0.0
2017-Apr-20 00:00N 33°45' W 118°16'0 0.0
2017-Apr-19 23:30N 33°45' W 118°16'0 0.0
2017-Apr-19 23:00N 33°45' W 118°16'0 0.0
2017-Apr-19 22:30N 33°45' W 118°16'0 0.0
2017-Apr-19 22:00N 33°45' W 118°16'0 0.0
2017-Apr-19 21:30N 33°45' W 118°16'0 0.0
2017-Apr-19 21:00N 33°45' W 118°16'0 0.0
2017-Apr-19 20:30N 33°45' W 118°16'0 0.0
2017-Apr-19 20:00N 33°45' W 118°16'0 0.0
2017-Apr-19 19:12N 33°45' W 118°16'0 0.0
2017-Apr-19 18:48N 33°45' W 118°16'0 0.0
2017-Apr-19 18:06N 33°45' W 118°16'0 0.0
2017-Apr-19 17:42N 33°45' W 118°16'0 0.0
2017-Apr-19 17:30N 33°45' W 118°16'0 0.0
2017-Apr-19 16:30N 33°45' W 118°16'0 0.0
2017-Apr-19 05:30N 33°45' W 118°16'0 0.0
2017-Apr-19 04:48N 33°45' W 118°16'0 0.0
2017-Apr-19 04:30N 33°45' W 118°16'0 0.0
2017-Apr-19 04:00N 33°45' W 118°16'0 0.0
2017-Apr-19 03:24N 33°45' W 118°16'0 0.0
2017-Apr-19 03:00N 33°45' W 118°16'0 0.0
2017-Apr-19 02:30N 33°45' W 118°16'0 0.0
2017-Apr-19 02:00N 33°45' W 118°16'0 0.0
2017-Apr-19 00:24N 33°45' W 118°16'0 0.0
2017-Apr-18 23:54N 33°45' W 118°16'0 0.0
2017-Apr-18 23:30N 33°45' W 118°16'0 0.0
2017-Apr-18 23:00N 33°45' W 118°16'0 0.0
2017-Apr-18 22:30N 33°45' W 118°16'0 0.0
2017-Apr-18 22:00N 33°45' W 118°16'1 2.8
2017-Apr-18 21:30N 33°44' W 118°17'4 7.8
2017-Apr-18 21:00N 33°41' W 118°14'4 7.7
2017-Apr-18 20:30N 33°37' W 118°15'5 9.7
2017-Apr-18 20:00N 33°36' W 118°21'611.2
2017-Apr-18 19:30N 33°39' W 118°27'611.6
2017-Apr-18 19:00N 33°42' W 118°32'611.8
2017-Apr-18 18:30N 33°45' W 118°38'611.5
2017-Apr-18 18:01N 33°48' W 118°44'611.6
2017-Apr-18 17:30N 33°51' W 118°51'611.5
2017-Apr-18 17:01N 33°54' W 118°57'611.5
2017-Apr-18 16:30N 33°56' W 119°03'612.1
2017-Apr-18 16:00N 33°60' W 119°09'713.1
2017-Apr-18 15:29N 34°03' W 119°16'714.3
2017-Apr-18 15:00N 34°04' W 119°24'714.3
2017-Apr-18 14:30N 34°06' W 119°33'1515.5
2017-Apr-18 13:30N 34°10' W 119°51'915.5
2017-Apr-18 12:56N 34°13' W 120°01'715.5
2017-Apr-18 12:30N 34°14' W 120°09'815.5
2017-Apr-18 12:00N 34°16' W 120°18'815.4
2017-Apr-18 11:30N 34°19' W 120°27'815.5
2017-Apr-18 11:00N 34°21' W 120°36'815.5
2017-Apr-18 10:30N 34°23' W 120°45'815.6
2017-Apr-18 10:00N 34°24' W 120°54'815.5
2017-Apr-18 09:29N 34°26' W 121°04'715.5
2017-Apr-18 09:01N 34°27' W 121°13'815.5
2017-Apr-18 08:30N 34°29' W 121°22'815.3
2017-Apr-18 08:00N 34°30' W 121°31'815.4
2017-Apr-18 07:30N 34°31' W 121°40'815.6
2017-Apr-18 07:00N 34°32' W 121°50'715.3
2017-Apr-18 06:30N 34°34' W 121°59'815.5
2017-Apr-18 05:59N 34°35' W 122°08'815.5
2017-Apr-18 05:30N 34°36' W 122°17'815.5
2017-Apr-18 04:59N 34°38' W 122°27'815.5
2017-Apr-18 04:28N 34°39' W 122°36'715.6
2017-Apr-18 04:01N 34°40' W 122°45'815.3
2017-Apr-18 03:30N 34°42' W 122°54'815.3
2017-Apr-18 03:00N 34°43' W 123°03'4 7.0
2017-Apr-18 02:30N 34°44' W 123°07'4 8.9
2017-Apr-18 02:00N 34°44' W 123°13'918.3
2017-Apr-18 01:30N 34°46' W 123°24'  

Dump ship's entire track history